Time;durP1;ratioP1;P1;durP2;ratioP2;P2;SDS_P1;SDS_P2;PMS_P1;PMS_P2;Temp;Humidity;BMP_temperature;BMP_pressure;BME280_temperature;BME280_humidity;BME280_pressure;Samples;Min_cycle;Max_cycle;Signal;HPM_P1;HPM_P2
2021/11/06 00:02:10;;;;;;;7.53;4.95;;;;;;;;;;5023959;28;20178;-77
2021/11/06 00:04:36;;;;;;;8.55;4.80;;;;;;;;;;5020655;28;20186;-76
2021/11/06 00:07:02;;;;;;;5.78;4.05;;;;;;;;;;5022481;28;20182;-77
2021/11/06 00:09:28;;;;;;;7.32;5.28;;;;;;;;;;5018054;28;20302;-77
2021/11/06 00:11:54;;;;;;;7.63;5.05;;;;;;;;;;5022878;28;20515;-77
2021/11/06 00:14:20;;;;;;;6.97;5.15;;;;;;;;;;5021635;28;20171;-77
2021/11/06 00:16:46;;;;;;;5.35;4.85;;;;;;;;;;5037589;28;20186;-76
2021/11/06 00:19:12;;;;;;;7.55;4.80;;;;;;;;;;5019905;28;20217;-76
2021/11/06 00:21:38;;;;;;;7.70;4.57;;;;;;;;;;5024951;28;20185;-77
2021/11/06 00:24:04;;;;;;;6.22;4.95;;;;;;;;;;5016009;28;20876;-77
2021/11/06 00:26:30;;;;;;;5.88;4.50;;;;;;;;;;5040535;28;20532;-77
2021/11/06 00:28:57;;;;;;;6.10;4.25;;;;;;;;;;5018013;28;20247;-77
2021/11/06 00:31:23;;;;;;;5.85;4.78;;;;;;;;;;5019212;28;20225;-77
2021/11/06 00:33:49;;;;;;;6.90;4.70;;;;;;;;;;5020229;28;20609;-77
2021/11/06 00:36:15;;;;;;;5.68;4.55;;;;;;;;;;5018797;28;20193;-77
2021/11/06 00:38:41;;;;;;;7.55;4.32;;;;;;;;;;5018980;28;20183;-77
2021/11/06 00:41:07;;;;;;;5.38;4.57;;;;;;;;;;5018465;28;20192;-77
2021/11/06 00:43:33;;;;;;;7.25;4.90;;;;;;;;;;5037799;28;20182;-77
2021/11/06 00:45:59;;;;;;;6.88;4.55;;;;;;;;;;5027105;28;20218;-77
2021/11/06 00:48:25;;;;;;;5.40;3.92;;;;;;;;;;5020791;28;20197;-77
2021/11/06 00:50:51;;;;;;;5.90;3.97;;;;;;;;;;5018523;28;20210;-77
2021/11/06 00:53:17;;;;;;;5.57;4.05;;;;;;;;;;5018378;28;20439;-77
2021/11/06 00:55:43;;;;;;;6.20;3.58;;;;;;;;;;5020215;28;20178;-77
2021/11/06 00:58:09;;;;;;;6.80;3.65;;;;;;;;;;5019589;28;20178;-77
2021/11/06 01:00:35;;;;;;;7.15;3.25;;;;;;;;;;5022130;28;20375;-77
2021/11/06 01:03:01;;;;;;;7.18;3.15;;;;;;;;;;5016296;28;20532;-77
2021/11/06 01:05:27;;;;;;;10.98;4.22;;;;;;;;;;5039631;28;20265;-77
2021/11/06 01:07:53;;;;;;;6.50;3.65;;;;;;;;;;5017304;28;20198;-77
2021/11/06 01:10:19;;;;;;;6.90;4.20;;;;;;;;;;5019821;28;20451;-77
2021/11/06 01:12:45;;;;;;;7.05;3.65;;;;;;;;;;5019044;28;20297;-77
2021/11/06 01:15:12;;;;;;;4.97;4.32;;;;;;;;;;5035036;28;20182;-76
2021/11/06 01:17:39;;;;;;;6.60;4.30;;;;;;;;;;5050453;28;20170;-76
2021/11/06 01:20:05;;;;;;;4.30;3.90;;;;;;;;;;5019156;28;20194;-76
2021/11/06 01:22:31;;;;;;;4.70;3.75;;;;;;;;;;5031545;28;20187;-76
2021/11/06 01:24:57;;;;;;;8.15;4.05;;;;;;;;;;5018617;28;20188;-77
2021/11/06 01:27:23;;;;;;;5.85;3.80;;;;;;;;;;5023324;28;20194;-77
2021/11/06 01:29:49;;;;;;;9.00;4.32;;;;;;;;;;5018241;28;20202;-77
2021/11/06 01:32:15;;;;;;;4.40;4.10;;;;;;;;;;5038077;28;20178;-76
2021/11/06 01:34:41;;;;;;;4.18;3.75;;;;;;;;;;5018906;28;20178;-76
2021/11/06 01:37:07;;;;;;;4.88;4.38;;;;;;;;;;5018069;28;20659;-76
2021/11/06 01:39:33;;;;;;;8.68;4.50;;;;;;;;;;5021523;28;20190;-76
2021/11/06 01:41:59;;;;;;;5.25;3.70;;;;;;;;;;5017809;28;20183;-76
2021/11/06 01:44:25;;;;;;;6.35;3.90;;;;;;;;;;5018342;28;20578;-76
2021/11/06 01:46:52;;;;;;;4.82;4.25;;;;;;;;;;5017418;28;20668;-76
2021/11/06 01:49:21;;;;;;;4.55;3.85;;;;;;;;;;5018498;28;20206;-76
2021/11/06 01:51:48;;;;;;;5.30;3.78;;;;;;;;;;5021441;28;20178;-76
2021/11/06 01:54:14;;;;;;;6.95;4.25;;;;;;;;;;5017410;28;20190;-76
2021/11/06 01:56:41;;;;;;;7.15;3.95;;;;;;;;;;5019676;28;20183;-76
2021/11/06 01:59:07;;;;;;;6.68;4.40;;;;;;;;;;5017835;28;20183;-76
2021/11/06 02:01:33;;;;;;;4.15;3.40;;;;;;;;;;5017540;28;20381;-76
2021/11/06 02:03:59;;;;;;;3.97;3.50;;;;;;;;;;5020592;28;20193;-76
2021/11/06 02:06:25;;;;;;;7.65;4.82;;;;;;;;;;5015001;28;20194;-76
2021/11/06 02:08:51;;;;;;;7.50;4.63;;;;;;;;;;5017364;28;20566;-76
2021/11/06 02:11:17;;;;;;;4.90;3.80;;;;;;;;;;5049766;28;20230;-76
2021/11/06 02:13:44;;;;;;;5.22;4.43;;;;;;;;;;5018425;28;20240;-76
2021/11/06 02:16:10;;;;;;;12.27;4.35;;;;;;;;;;5018588;28;20187;-76
2021/11/06 02:18:36;;;;;;;6.03;4.43;;;;;;;;;;5022708;28;20185;-76
2021/11/06 02:21:03;;;;;;;5.35;4.05;;;;;;;;;;5014880;28;20266;-76
2021/11/06 02:23:32;;;;;;;5.90;4.00;;;;;;;;;;5022649;28;20214;-76
2021/11/06 02:25:58;;;;;;;5.20;3.90;;;;;;;;;;5017407;28;20228;-77
2021/11/06 02:28:24;;;;;;;5.75;5.10;;;;;;;;;;5017315;28;20682;-77
2021/11/06 02:30:51;;;;;;;8.68;4.50;;;;;;;;;;5010497;28;20277;-77
2021/11/06 02:33:16;;;;;;;9.40;4.40;;;;;;;;;;5020604;28;20437;-77
2021/11/06 02:35:43;;;;;;;5.22;4.70;;;;;;;;;;5017201;28;20179;-77
2021/11/06 02:38:11;;;;;;;5.10;4.05;;;;;;;;;;5020651;28;20186;-76
2021/11/06 02:40:37;;;;;;;5.45;4.15;;;;;;;;;;5037908;28;20186;-77
2021/11/06 02:43:03;;;;;;;6.25;4.68;;;;;;;;;;5020093;28;20564;-77
2021/11/06 02:45:29;;;;;;;5.90;3.60;;;;;;;;;;5014711;28;20222;-77
2021/11/06 02:47:55;;;;;;;6.13;3.75;;;;;;;;;;5017321;28;20242;-77
2021/11/06 02:50:21;;;;;;;4.95;3.70;;;;;;;;;;5021261;28;20290;-77
2021/11/06 02:52:47;;;;;;;4.97;4.00;;;;;;;;;;5027093;28;20202;-77
2021/11/06 02:55:13;;;;;;;7.60;4.20;;;;;;;;;;5021959;28;20191;-77
2021/11/06 02:57:39;;;;;;;5.88;4.30;;;;;;;;;;5024179;28;20214;-77
2021/11/06 03:00:06;;;;;;;9.48;4.82;;;;;;;;;;5020208;28;20191;-77
2021/11/06 03:02:32;;;;;;;5.43;4.18;;;;;;;;;;5021609;28;20186;-77
2021/11/06 03:05:03;;;;;;;11.45;5.47;;;;;;;;;;5019039;28;20213;-77
2021/11/06 03:07:29;;;;;;;6.68;4.53;;;;;;;;;;5019844;28;20187;-77
2021/11/06 03:09:55;;;;;;;6.00;4.50;;;;;;;;;;5039102;28;20206;-76
2021/11/06 03:12:22;;;;;;;5.75;4.88;;;;;;;;;;5021520;28;20210;-76
2021/11/06 03:14:48;;;;;;;4.90;4.43;;;;;;;;;;5022066;28;20178;-76
2021/11/06 03:17:14;;;;;;;13.77;4.25;;;;;;;;;;5016222;28;20175;-76
2021/11/06 03:19:40;;;;;;;4.50;3.88;;;;;;;;;;5018351;28;20229;-77
2021/11/06 03:22:06;;;;;;;6.18;4.43;;;;;;;;;;5030008;28;20187;-77
2021/11/06 03:24:33;;;;;;;4.20;3.80;;;;;;;;;;5017104;28;20178;-77
2021/11/06 03:26:59;;;;;;;5.40;4.25;;;;;;;;;;5022412;28;20179;-76
2021/11/06 03:29:25;;;;;;;8.13;4.78;;;;;;;;;;5041284;28;20225;-76
2021/11/06 03:31:51;;;;;;;5.93;4.30;;;;;;;;;;5020160;28;20184;-77
2021/11/06 03:34:17;;;;;;;6.00;4.03;;;;;;;;;;5020569;28;20217;-77
2021/11/06 03:36:43;;;;;;;7.20;4.63;;;;;;;;;;5024865;28;20221;-77
2021/11/06 03:39:09;;;;;;;5.15;3.60;;;;;;;;;;5019079;28;20195;-76
2021/11/06 03:41:35;;;;;;;4.93;3.40;;;;;;;;;;5020722;28;20182;-77
2021/11/06 03:44:01;;;;;;;6.90;3.50;;;;;;;;;;5040221;28;20213;-77
2021/11/06 03:46:27;;;;;;;4.30;3.08;;;;;;;;;;5022582;28;20230;-77
2021/11/06 03:48:53;;;;;;;5.50;3.80;;;;;;;;;;5023313;28;20221;-77
2021/11/06 03:51:20;;;;;;;3.75;3.38;;;;;;;;;;5022892;28;20688;-77
2021/11/06 03:53:46;;;;;;;5.43;3.88;;;;;;;;;;5022890;28;20178;-77
2021/11/06 03:56:12;;;;;;;4.82;3.38;;;;;;;;;;5039890;28;20185;-77
2021/11/06 03:58:39;;;;;;;5.28;3.90;;;;;;;;;;5018079;28;20237;-77
2021/11/06 04:01:05;;;;;;;5.70;3.75;;;;;;;;;;5021239;28;20186;-77
2021/11/06 04:03:31;;;;;;;5.78;3.95;;;;;;;;;;5017674;28;20187;-77
2021/11/06 04:05:57;;;;;;;6.88;4.63;;;;;;;;;;5017847;28;20229;-77
2021/11/06 04:08:23;;;;;;;5.25;4.68;;;;;;;;;;5039998;28;20170;-77
2021/11/06 04:10:49;;;;;;;5.05;3.70;;;;;;;;;;5020300;28;20229;-77
2021/11/06 04:13:15;;;;;;;10.13;3.90;;;;;;;;;;5019280;28;20209;-77
2021/11/06 04:15:42;;;;;;;9.25;4.97;;;;;;;;;;5009157;28;20182;-77
2021/11/06 04:18:08;;;;;;;6.03;4.57;;;;;;;;;;5023955;28;20265;-77
2021/11/06 04:20:34;;;;;;;9.68;4.95;;;;;;;;;;5040758;28;20182;-77
2021/11/06 04:23:00;;;;;;;12.15;4.97;;;;;;;;;;5016474;28;20290;-77
2021/11/06 04:25:26;;;;;;;4.90;4.20;;;;;;;;;;5018693;28;20194;-77
2021/11/06 04:27:52;;;;;;;5.68;4.18;;;;;;;;;;5038139;28;20263;-77
2021/11/06 04:30:18;;;;;;;6.75;4.25;;;;;;;;;;5019117;28;20206;-77
2021/11/06 04:32:44;;;;;;;5.68;4.60;;;;;;;;;;5019847;28;20441;-77
2021/11/06 04:35:11;;;;;;;6.70;5.40;;;;;;;;;;5019093;28;20171;-78
2021/11/06 04:37:37;;;;;;;10.93;5.07;;;;;;;;;;5038903;28;20190;-78
2021/11/06 04:40:04;;;;;;;6.22;4.70;;;;;;;;;;5021363;28;20460;-78
2021/11/06 04:42:30;;;;;;;6.28;5.65;;;;;;;;;;5016886;28;20195;-78
2021/11/06 04:44:56;;;;;;;7.80;5.25;;;;;;;;;;5016973;28;20222;-78
2021/11/06 04:47:22;;;;;;;7.20;5.68;;;;;;;;;;5050281;28;20186;-78
2021/11/06 04:49:48;;;;;;;6.97;4.97;;;;;;;;;;5019252;28;20206;-78
2021/11/06 04:52:14;;;;;;;5.22;4.50;;;;;;;;;;5019620;28;20186;-77
2021/11/06 04:54:40;;;;;;;5.70;5.15;;;;;;;;;;5011363;28;20252;-78
2021/11/06 04:57:06;;;;;;;6.20;4.60;;;;;;;;;;5017278;28;20174;-77
2021/11/06 04:59:32;;;;;;;6.22;4.88;;;;;;;;;;5038995;28;20191;-78
2021/11/06 05:02:00;;;;;;;7.57;5.40;;;;;;;;;;5019685;28;20232;-78
2021/11/06 05:04:26;;;;;;;7.95;5.55;;;;;;;;;;5017858;28;20179;-78
2021/11/06 05:06:52;;;;;;;7.15;5.95;;;;;;;;;;5017245;28;20183;-78
2021/11/06 05:09:19;;;;;;;6.30;4.85;;;;;;;;;;5020902;28;20205;-78
2021/11/06 05:11:45;;;;;;;6.57;5.03;;;;;;;;;;5017382;28;20174;-77
2021/11/06 05:14:11;;;;;;;6.13;5.10;;;;;;;;;;5017675;28;20198;-78
2021/11/06 05:16:37;;;;;;;8.57;5.22;;;;;;;;;;5018864;28;20408;-78
2021/11/06 05:19:03;;;;;;;7.95;5.65;;;;;;;;;;5021655;28;20185;-78
2021/11/06 05:21:36;;;;;;;7.53;6.10;;;;;;;;;;5016364;28;20353;-78
2021/11/06 05:24:03;;;;;;;11.75;6.13;;;;;;;;;;5016535;28;20178;-78
2021/11/06 05:26:29;;;;;;;8.10;7.18;;;;;;;;;;5019369;28;20201;-78
2021/11/06 05:28:56;;;;;;;8.15;6.57;;;;;;;;;;5015203;28;20187;-77
2021/11/06 05:31:22;;;;;;;8.27;5.72;;;;;;;;;;5017213;28;20187;-78
2021/11/06 05:33:48;;;;;;;9.13;6.78;;;;;;;;;;5022224;28;20217;-78
2021/11/06 05:36:14;;;;;;;8.77;6.18;;;;;;;;;;5016232;28;20541;-77
2021/11/06 05:38:40;;;;;;;12.95;7.22;;;;;;;;;;5020102;28;20182;-77
2021/11/06 05:41:06;;;;;;;9.23;7.32;;;;;;;;;;5017825;28;20209;-77
2021/11/06 05:43:32;;;;;;;10.07;7.60;;;;;;;;;;5038485;28;20190;-78
2021/11/06 05:45:58;;;;;;;9.30;7.15;;;;;;;;;;5020973;28;20249;-78
2021/11/06 05:48:24;;;;;;;9.00;7.68;;;;;;;;;;5015610;28;20187;-78
2021/11/06 05:50:50;;;;;;;12.82;8.70;;;;;;;;;;5018296;28;20206;-77
2021/11/06 05:53:16;;;;;;;8.15;7.25;;;;;;;;;;5037202;28;20175;-77
2021/11/06 05:55:42;;;;;;;9.05;7.47;;;;;;;;;;5020128;28;20187;-78
2021/11/06 05:58:09;;;;;;;12.82;8.23;;;;;;;;;;5016434;28;20190;-77
2021/11/06 06:00:36;;;;;;;9.13;7.97;;;;;;;;;;5035558;28;20182;-78
2021/11/06 06:03:01;;;;;;;16.73;7.93;;;;;;;;;;5019344;28;20558;-78
2021/11/06 06:05:27;;;;;;;8.45;7.55;;;;;;;;;;5038691;28;20180;-78
2021/11/06 06:07:53;;;;;;;11.45;9.23;;;;;;;;;;5018344;28;20231;-77
2021/11/06 06:10:19;;;;;;;12.95;8.90;;;;;;;;;;5018616;28;20242;-77
2021/11/06 06:12:50;;;;;;;14.32;8.63;;;;;;;;;;5016882;28;20190;-77
2021/11/06 06:15:16;;;;;;;9.95;8.93;;;;;;;;;;5021383;28;20202;-77
2021/11/06 06:17:42;;;;;;;9.43;7.90;;;;;;;;;;5023348;28;20175;-77
2021/11/06 06:20:09;;;;;;;8.85;7.90;;;;;;;;;;5016935;28;20198;-78
2021/11/06 06:22:36;;;;;;;10.10;8.43;;;;;;;;;;5019506;28;20191;-77
2021/11/06 06:25:03;;;;;;;9.68;7.40;;;;;;;;;;5019973;28;20188;-77
2021/11/06 06:27:29;;;;;;;11.40;7.85;;;;;;;;;;5038213;28;20183;-77
2021/11/06 06:29:55;;;;;;;12.25;8.15;;;;;;;;;;5020558;28;20256;-77
2021/11/06 06:32:21;;;;;;;9.63;8.55;;;;;;;;;;5046684;28;20182;-77
2021/11/06 06:34:47;;;;;;;8.90;8.00;;;;;;;;;;5021012;28;20186;-77
2021/11/06 06:37:13;;;;;;;11.07;8.27;;;;;;;;;;5021748;28;20178;-77
2021/11/06 06:39:39;;;;;;;10.45;8.35;;;;;;;;;;5023413;28;20197;-77
2021/11/06 06:42:05;;;;;;;10.75;7.97;;;;;;;;;;5020668;28;20210;-77
2021/11/06 06:44:31;;;;;;;12.30;8.45;;;;;;;;;;5021995;28;20232;-77
2021/11/06 06:46:57;;;;;;;12.02;7.32;;;;;;;;;;5019947;28;20655;-77
2021/11/06 06:49:23;;;;;;;9.15;8.20;;;;;;;;;;5021834;28;20210;-77
2021/11/06 06:51:49;;;;;;;11.00;7.97;;;;;;;;;;5025590;28;20190;-77
2021/11/06 06:54:15;;;;;;;12.52;7.82;;;;;;;;;;5019176;28;20196;-77
2021/11/06 06:56:41;;;;;;;11.00;8.10;;;;;;;;;;5022169;28;20190;-77
2021/11/06 06:59:07;;;;;;;9.48;6.65;;;;;;;;;;5019863;28;20182;-77
2021/11/06 07:01:33;;;;;;;10.70;7.68;;;;;;;;;;5022174;28;20209;-77
2021/11/06 07:03:59;;;;;;;9.05;7.90;;;;;;;;;;5020409;28;20178;-77
2021/11/06 07:06:25;;;;;;;9.52;7.88;;;;;;;;;;5021860;28;20187;-77
2021/11/06 07:08:51;;;;;;;9.55;6.97;;;;;;;;;;5020281;28;20214;-77
2021/11/06 07:11:19;;;;;;;9.15;7.95;;;;;;;;;;5048474;28;20186;-77
2021/11/06 07:13:45;;;;;;;12.20;7.70;;;;;;;;;;5022461;28;20228;-77
2021/11/06 07:16:12;;;;;;;8.55;7.55;;;;;;;;;;5024199;28;20257;-77
2021/11/06 07:18:38;;;;;;;14.70;9.55;;;;;;;;;;5024865;28;20174;-77
2021/11/06 07:21:04;;;;;;;9.88;8.35;;;;;;;;;;5025373;28;20205;-77
2021/11/06 07:23:30;;;;;;;11.20;10.05;;;;;;;;;;5040974;28;20194;-77
2021/11/06 07:26:01;;;;;;;11.63;8.73;;;;;;;;;;5049036;28;20185;-77
2021/11/06 07:28:28;;;;;;;9.27;8.18;;;;;;;;;;5021041;28;20466;-77
2021/11/06 07:30:54;;;;;;;13.50;10.85;;;;;;;;;;5024119;28;20210;-78
2021/11/06 07:33:20;;;;;;;10.70;9.45;;;;;;;;;;5018629;28;20182;-79
2021/11/06 07:35:46;;;;;;;12.57;9.10;;;;;;;;;;5019098;28;20232;-78
2021/11/06 07:38:13;;;;;;;10.38;8.05;;;;;;;;;;5047605;28;20232;-79
2021/11/06 07:40:39;;;;;;;9.00;8.13;;;;;;;;;;5023885;28;20253;-78
2021/11/06 07:43:05;;;;;;;8.85;7.82;;;;;;;;;;5039675;28;20599;-79
2021/11/06 07:45:32;;;;;;;11.75;8.18;;;;;;;;;;5020797;28;20230;-79
2021/11/06 07:47:58;;;;;;;8.82;7.93;;;;;;;;;;5020152;28;20174;-79
2021/11/06 07:50:24;;;;;;;9.85;7.50;;;;;;;;;;5019466;28;20225;-79
2021/11/06 07:52:51;;;;;;;10.90;8.25;;;;;;;;;;5019565;28;20179;-79
2021/11/06 07:55:17;;;;;;;12.75;9.02;;;;;;;;;;5019123;28;20179;-78
2021/11/06 07:57:43;;;;;;;14.85;9.82;;;;;;;;;;5017384;28;20190;-79
2021/11/06 08:00:11;;;;;;;8.77;7.68;;;;;;;;;;5038734;28;20186;-78
2021/11/06 08:02:37;;;;;;;11.55;8.13;;;;;;;;;;5041457;28;20261;-78
2021/11/06 08:05:03;;;;;;;11.40;8.98;;;;;;;;;;5020555;28;20186;-78
2021/11/06 08:07:29;;;;;;;12.32;9.65;;;;;;;;;;5018940;28;20194;-78
2021/11/06 08:09:55;;;;;;;13.70;9.60;;;;;;;;;;5020442;28;20240;-78
2021/11/06 08:12:21;;;;;;;9.75;7.20;;;;;;;;;;5018761;28;20182;-79
2021/11/06 08:14:47;;;;;;;8.20;6.80;;;;;;;;;;5023772;28;20183;-78
2021/11/06 08:17:14;;;;;;;9.73;7.13;;;;;;;;;;5031603;28;20205;-79
2021/11/06 08:19:40;;;;;;;8.75;6.50;;;;;;;;;;5021712;28;20273;-79
2021/11/06 08:22:08;;;;;;;9.45;5.90;;;;;;;;;;5021843;28;20220;-78
2021/11/06 08:24:34;;;;;;;8.30;6.82;;;;;;;;;;5019016;28;20258;-78
2021/11/06 08:27:00;;;;;;;8.25;6.38;;;;;;;;;;5012275;28;20194;-78
2021/11/06 08:29:26;;;;;;;7.47;5.82;;;;;;;;;;5023924;28;20202;-79
2021/11/06 08:31:58;;;;;;;8.15;6.78;;;;;;;;;;5021099;28;20190;-78
2021/11/06 08:34:24;;;;;;;8.32;7.47;;;;;;;;;;5018595;28;20200;-78
2021/11/06 08:36:50;;;;;;;9.77;7.00;;;;;;;;;;5018973;28;20178;-79
2021/11/06 08:39:18;;;;;;;8.75;6.55;;;;;;;;;;5017845;28;20191;-79
2021/11/06 08:41:44;;;;;;;7.50;6.15;;;;;;;;;;5024235;28;20183;-79
2021/11/06 08:44:11;;;;;;;6.22;5.10;;;;;;;;;;5021571;28;20189;-79
2021/11/06 08:46:37;;;;;;;4.63;4.10;;;;;;;;;;5015726;28;20227;-79
2021/11/06 08:49:03;;;;;;;4.40;3.97;;;;;;;;;;5022177;28;20193;-79
2021/11/06 08:51:29;;;;;;;4.80;4.38;;;;;;;;;;5021000;28;20186;-79
2021/11/06 08:53:56;;;;;;;4.43;3.72;;;;;;;;;;5019987;28;20179;-79
2021/11/06 08:56:24;;;;;;;5.70;4.22;;;;;;;;;;5039357;28;20178;-79
2021/11/06 08:58:50;;;;;;;5.32;4.22;;;;;;;;;;5019107;28;20187;-79
2021/11/06 09:01:16;;;;;;;11.93;4.70;;;;;;;;;;5022901;28;20244;-79
2021/11/06 09:03:43;;;;;;;5.18;4.70;;;;;;;;;;5023753;28;20183;-79
2021/11/06 09:06:09;;;;;;;5.85;4.25;;;;;;;;;;5021577;28;20182;-79
2021/11/06 09:08:36;;;;;;;9.32;4.32;;;;;;;;;;5015876;28;20187;-79
2021/11/06 09:11:05;;;;;;;7.78;5.00;;;;;;;;;;5018342;28;20222;-79
2021/11/06 09:13:32;;;;;;;5.82;4.38;;;;;;;;;;5020330;28;20179;-79
2021/11/06 09:15:59;;;;;;;5.82;4.93;;;;;;;;;;5014974;28;20844;-79
2021/11/06 09:18:25;;;;;;;6.60;4.85;;;;;;;;;;5019437;28;20259;-78
2021/11/06 09:20:51;;;;;;;6.90;4.90;;;;;;;;;;5017265;28;20182;-78
2021/11/06 09:23:17;;;;;;;6.63;5.10;;;;;;;;;;5037949;28;20228;-78
2021/11/06 09:25:43;;;;;;;5.00;3.95;;;;;;;;;;5038219;28;20202;-78
2021/11/06 09:28:09;;;;;;;4.38;3.97;;;;;;;;;;5018551;28;20194;-78
2021/11/06 09:30:35;;;;;;;5.25;4.35;;;;;;;;;;5021636;28;20206;-79
2021/11/06 09:33:01;;;;;;;6.72;4.40;;;;;;;;;;5017943;28;20234;-79
2021/11/06 09:35:27;;;;;;;9.18;4.65;;;;;;;;;;5017877;28;20174;-79
2021/11/06 09:37:53;;;;;;;5.70;4.20;;;;;;;;;;5037848;28;20673;-79
2021/11/06 09:40:19;;;;;;;6.03;4.13;;;;;;;;;;5038081;28;20186;-79
2021/11/06 09:42:45;;;;;;;4.60;4.00;;;;;;;;;;5021507;28;20178;-79
2021/11/06 09:45:13;;;;;;;5.07;4.18;;;;;;;;;;5017315;28;20253;-78
2021/11/06 09:47:43;;;;;;;5.55;3.80;;;;;;;;;;5049329;28;20182;-78
2021/11/06 09:50:10;;;;;;;4.68;3.85;;;;;;;;;;5016873;28;20260;-79
2021/11/06 09:52:36;;;;;;;3.63;3.33;;;;;;;;;;5016912;28;20325;-79
2021/11/06 09:55:02;;;;;;;3.53;3.10;;;;;;;;;;5036195;28;20201;-78
2021/11/06 09:57:28;;;;;;;6.30;4.22;;;;;;;;;;5020444;28;20178;-78
2021/11/06 09:59:54;;;;;;;5.47;3.60;;;;;;;;;;5020340;28;20208;-78
2021/11/06 10:02:21;;;;;;;5.63;3.95;;;;;;;;;;5054379;28;20186;-78
2021/11/06 10:04:47;;;;;;;8.27;4.30;;;;;;;;;;5020964;28;20194;-78
2021/11/06 10:07:17;;;;;;;6.60;4.85;;;;;;;;;;5022405;28;20194;-78
2021/11/06 10:09:53;;;;;;;4.75;4.28;;;;;;;;;;5027055;28;20269;-78
2021/11/06 10:12:20;;;;;;;18.80;6.30;;;;;;;;;;5037366;28;20189;-78
2021/11/06 10:14:46;;;;;;;12.20;6.35;;;;;;;;;;5021830;28;20640;-78
2021/11/06 10:17:25;;;;;;;9.38;5.03;;;;;;;;;;5041499;28;20189;-79
2021/11/06 10:19:53;;;;;;;6.90;4.03;;;;;;;;;;5022157;28;20214;-78
2021/11/06 10:22:25;;;;;;;6.00;5.22;;;;;;;;;;5041363;28;20200;-79
2021/11/06 10:24:51;;;;;;;9.50;5.68;;;;;;;;;;5015057;28;20217;-78
2021/11/06 10:27:22;;;;;;;6.70;4.10;;;;;;;;;;5020246;28;20194;-79
2021/11/06 10:30:09;;;;;;;4.40;4.00;;;;;;;;;;5021439;28;20491;-78
2021/11/06 10:32:39;;;;;;;7.70;3.90;;;;;;;;;;5021766;28;20176;-78
2021/11/06 10:35:11;;;;;;;5.18;3.40;;;;;;;;;;5020620;28;20181;-79
2021/11/06 10:37:38;;;;;;;4.82;3.60;;;;;;;;;;5021097;28;20217;-78
2021/11/06 10:40:04;;;;;;;7.10;4.25;;;;;;;;;;5023865;28;20195;-78
2021/11/06 10:42:30;;;;;;;4.95;4.47;;;;;;;;;;5019031;28;20198;-78
2021/11/06 10:45:12;;;;;;;7.30;4.15;;;;;;;;;;5020577;28;20206;-78
2021/11/06 10:47:53;;;;;;;6.22;4.28;;;;;;;;;;5041068;28;20185;-78
2021/11/06 10:50:38;;;;;;;7.47;4.10;;;;;;;;;;5041542;28;20206;-78
2021/11/06 10:53:05;;;;;;;5.90;4.10;;;;;;;;;;5020349;28;20212;-78
2021/11/06 10:55:35;;;;;;;5.18;4.18;;;;;;;;;;5021441;28;20264;-78
2021/11/06 10:58:03;;;;;;;6.57;4.45;;;;;;;;;;5019768;28;20186;-78
2021/11/06 11:00:29;;;;;;;4.18;3.75;;;;;;;;;;5025514;28;20203;-78
2021/11/06 11:02:55;;;;;;;10.10;4.10;;;;;;;;;;5018855;28;20178;-77
2021/11/06 11:05:30;;;;;;;3.70;2.97;;;;;;;;;;5021579;28;20187;-77
2021/11/06 11:08:03;;;;;;;6.07;4.10;;;;;;;;;;5014514;28;20183;-79
2021/11/06 11:10:29;;;;;;;3.78;2.80;;;;;;;;;;5034886;28;20595;-77
2021/11/06 11:13:14;;;;;;;3.42;3.13;;;;;;;;;;5019254;28;20186;-79
2021/11/06 11:15:41;;;;;;;7.32;3.70;;;;;;;;;;5023656;28;20189;-79
2021/11/06 11:18:07;;;;;;;4.20;3.78;;;;;;;;;;5017866;28;20182;-78
2021/11/06 11:20:39;;;;;;;3.85;3.45;;;;;;;;;;5021356;28;20190;-78
2021/11/06 11:23:08;;;;;;;6.15;3.53;;;;;;;;;;5019371;28;20210;-78
2021/11/06 11:25:36;;;;;;;5.45;4.47;;;;;;;;;;5021518;28;20194;-78
2021/11/06 11:28:02;;;;;;;3.45;3.15;;;;;;;;;;5023257;28;20224;-78
2021/11/06 11:30:28;;;;;;;3.63;3.20;;;;;;;;;;5021506;28;20194;-77
2021/11/06 11:32:54;;;;;;;4.20;3.20;;;;;;;;;;5023939;28;20179;-78
2021/11/06 11:35:20;;;;;;;4.38;3.03;;;;;;;;;;5040424;28;20684;-78
2021/11/06 11:37:46;;;;;;;4.85;3.70;;;;;;;;;;5020137;28;20178;-79
2021/11/06 11:40:13;;;;;;;3.60;3.30;;;;;;;;;;5022401;28;20178;-79
2021/11/06 11:42:39;;;;;;;5.65;3.10;;;;;;;;;;5022721;28;20457;-78
2021/11/06 11:45:24;;;;;;;3.72;3.10;;;;;;;;;;5053237;28;20228;-78
2021/11/06 11:48:01;;;;;;;3.65;2.90;;;;;;;;;;5053896;28;20584;-78
2021/11/06 11:50:34;;;;;;;3.78;3.42;;;;;;;;;;5023192;28;20288;-78
2021/11/06 11:53:01;;;;;;;8.68;3.15;;;;;;;;;;5018195;28;20178;-78
2021/11/06 11:55:44;;;;;;;3.10;2.90;;;;;;;;;;5050430;28;20441;-78
2021/11/06 11:58:15;;;;;;;8.55;3.92;;;;;;;;;;5018407;28;20211;-78
2021/11/06 12:00:49;;;;;;;3.33;3.03;;;;;;;;;;5022365;28;20201;-79
2021/11/06 12:03:26;;;;;;;2.35;2.15;;;;;;;;;;5018851;28;20183;-78
2021/11/06 12:05:53;;;;;;;6.07;2.75;;;;;;;;;;5036986;28;20182;-78
2021/11/06 12:08:21;;;;;;;6.82;2.80;;;;;;;;;;5039056;28;20202;-78
2021/11/06 12:10:48;;;;;;;3.92;3.60;;;;;;;;;;5022074;28;20225;-79
2021/11/06 12:13:31;;;;;;;3.22;2.88;;;;;;;;;;5023603;28;20182;-78
2021/11/06 12:15:59;;;;;;;2.60;2.40;;;;;;;;;;5020291;28;20194;-78
2021/11/06 12:18:34;;;;;;;3.47;3.17;;;;;;;;;;5019962;28;20185;-79
2021/11/06 12:21:15;;;;;;;3.17;2.85;;;;;;;;;;5016941;28;20185;-79
2021/11/06 12:23:45;;;;;;;3.83;2.47;;;;;;;;;;5019786;28;20201;-76
2021/11/06 12:26:14;;;;;;;3.50;2.70;;;;;;;;;;5039314;28;20174;-79
2021/11/06 12:28:41;;;;;;;2.65;2.45;;;;;;;;;;5019238;28;20216;-78
2021/11/06 12:31:26;;;;;;;2.80;2.50;;;;;;;;;;5026193;28;20213;-78
2021/11/06 12:33:52;;;;;;;2.55;2.35;;;;;;;;;;5022491;28;20182;-77
2021/11/06 12:36:26;;;;;;;4.20;2.53;;;;;;;;;;5053810;28;20208;-78
2021/11/06 12:38:59;;;;;;;2.65;1.70;;;;;;;;;;5018447;28;20792;-77
2021/11/06 12:41:29;;;;;;;4.40;1.90;;;;;;;;;;5016296;28;20187;-79
2021/11/06 12:43:55;;;;;;;3.20;2.00;;;;;;;;;;5019687;28;20186;-78
2021/11/06 12:46:26;;;;;;;3.80;1.98;;;;;;;;;;5023198;28;20229;-78
2021/11/06 12:48:52;;;;;;;2.40;2.20;;;;;;;;;;5021178;28;20225;-77
2021/11/06 12:51:38;;;;;;;1.92;1.77;;;;;;;;;;5020220;28;20265;-81
2021/11/06 12:54:07;;;;;;;1.90;1.70;;;;;;;;;;5017466;28;20213;-76
2021/11/06 12:56:41;;;;;;;2.90;2.28;;;;;;;;;;5023455;28;20182;-79
2021/11/06 12:59:08;;;;;;;3.05;2.28;;;;;;;;;;5034247;28;20191;-79
2021/11/06 13:01:37;;;;;;;4.07;2.08;;;;;;;;;;5039955;28;20234;-80
2021/11/06 13:04:05;;;;;;;2.33;2.13;;;;;;;;;;5021911;28;20182;-78
2021/11/06 13:06:38;;;;;;;2.00;1.80;;;;;;;;;;5019448;28;20174;-79
2021/11/06 13:09:04;;;;;;;3.08;2.20;;;;;;;;;;5017678;28;20541;-81
2021/11/06 13:11:49;;;;;;;5.40;2.13;;;;;;;;;;5039151;28;20186;-78
2021/11/06 13:14:32;;;;;;;2.30;2.10;;;;;;;;;;5018141;28;20424;-77
2021/11/06 13:17:12;;;;;;;2.35;1.90;;;;;;;;;;5017510;28;20253;-78
2021/11/06 13:19:40;;;;;;;3.50;2.63;;;;;;;;;;5017106;28;20214;-79
2021/11/06 13:22:06;;;;;;;3.33;1.98;;;;;;;;;;5020974;28;20193;-78
2021/11/06 13:24:51;;;;;;;3.05;1.90;;;;;;;;;;5017815;28;20198;-78
2021/11/06 13:27:36;;;;;;;1.60;1.50;;;;;;;;;;5017963;28;20241;-78
2021/11/06 13:30:21;;;;;;;1.50;1.40;;;;;;;;;;5016915;28;20210;-79
2021/11/06 13:33:08;;;;;;;4.68;2.10;;;;;;;;;;5023362;28;20541;-77
2021/11/06 13:35:39;;;;;;;2.60;1.80;;;;;;;;;;5035864;28;20221;-78
2021/11/06 13:38:11;;;;;;;5.15;1.73;;;;;;;;;;5031639;28;20189;-80
2021/11/06 13:40:49;;;;;;;4.18;2.00;;;;;;;;;;5018911;28;20182;-78
2021/11/06 13:43:17;;;;;;;2.85;1.70;;;;;;;;;;5020295;28;20175;-78
2021/11/06 13:46:01;;;;;;;3.45;1.70;;;;;;;;;;5022522;28;20226;-79
2021/11/06 13:48:28;;;;;;;1.88;1.77;;;;;;;;;;5034468;28;20211;-79
2021/11/06 13:50:55;;;;;;;4.45;2.00;;;;;;;;;;5020813;28;20217;-79
2021/11/06 13:53:28;;;;;;;3.45;2.20;;;;;;;;;;5017279;28;20232;-80
2021/11/06 13:56:00;;;;;;;3.70;2.33;;;;;;;;;;5016687;28;20186;-78
2021/11/06 13:58:26;;;;;;;2.70;1.75;;;;;;;;;;5016932;28;20187;-78
2021/11/06 14:00:53;;;;;;;2.13;1.75;;;;;;;;;;5050741;28;20198;-78
2021/11/06 14:03:21;;;;;;;3.90;1.95;;;;;;;;;;5020853;28;20257;-79
2021/11/06 14:05:47;;;;;;;2.17;1.70;;;;;;;;;;5020508;28;20183;-78
2021/11/06 14:08:17;;;;;;;2.42;2.22;;;;;;;;;;5021432;28;20215;-78
2021/11/06 14:10:43;;;;;;;2.25;1.50;;;;;;;;;;5016737;28;20207;-79
2021/11/06 14:13:14;;;;;;;1.80;1.45;;;;;;;;;;5036804;28;20190;-78
2021/11/06 14:15:50;;;;;;;3.45;3.15;;;;;;;;;;5034145;28;20198;-77
2021/11/06 14:18:22;;;;;;;2.00;1.52;;;;;;;;;;5017518;28;20205;-78
2021/11/06 14:21:08;;;;;;;3.35;1.63;;;;;;;;;;5019566;28;20182;-77
2021/11/06 14:23:35;;;;;;;1.58;1.48;;;;;;;;;;5022219;28;20179;-77
2021/11/06 14:26:15;;;;;;;2.72;1.25;;;;;;;;;;5038020;28;20191;-78
2021/11/06 14:28:50;;;;;;;2.00;1.80;;;;;;;;;;5018606;28;20537;-76
2021/11/06 14:31:29;;;;;;;1.80;1.70;;;;;;;;;;5019657;28;20212;-77
2021/11/06 14:33:56;;;;;;;2.20;1.55;;;;;;;;;;5008153;28;20247;-77
2021/11/06 14:36:21;;;;;;;1.33;1.17;;;;;;;;;;5018234;28;20586;-76
2021/11/06 14:38:54;;;;;;;1.83;1.40;;;;;;;;;;5015835;28;20210;-77
2021/11/06 14:41:21;;;;;;;1.35;1.25;;;;;;;;;;5017514;28;20870;-77
2021/11/06 14:43:55;;;;;;;1.45;1.25;;;;;;;;;;5020235;28;20188;-77
2021/11/06 14:46:21;;;;;;;1.58;1.35;;;;;;;;;;5021429;28;20218;-77